Time;durP1;ratioP1;P1;durP2;ratioP2;P2;SDS_P1;SDS_P2;PMS_P1;PMS_P2;Temp;Humidity;BMP_temperature;BMP_pressure;BME280_temperature;BME280_humidity;BME280_pressure;Samples;Min_cycle;Max_cycle;Signal;HPM_P1;HPM_P2
2021/10/08 00:00:25;;;;;;;16.88;8.40;;;;;;;;;;5059331;28;20061;-60
2021/10/08 00:02:52;;;;;;;17.33;8.30;;;;;;;;;;5055355;28;20040;-61
2021/10/08 00:05:18;;;;;;;15.05;7.35;;;;;;;;;;5060255;28;20089;-62
2021/10/08 00:07:46;;;;;;;13.40;6.72;;;;;;;;;;5039564;28;20053;-59
2021/10/08 00:10:18;;;;;;;18.85;7.22;;;;;;;;;;5040342;28;20041;-61
2021/10/08 00:12:44;;;;;;;12.32;6.68;;;;;;;;;;5049927;28;20267;-60
2021/10/08 00:15:11;;;;;;;12.60;6.55;;;;;;;;;;5040074;28;20049;-59
2021/10/08 00:17:38;;;;;;;14.23;6.75;;;;;;;;;;5035712;28;20041;-60
2021/10/08 00:20:05;;;;;;;19.23;6.53;;;;;;;;;;5040014;28;20179;-59
2021/10/08 00:22:33;;;;;;;13.45;6.20;;;;;;;;;;5047275;28;20040;-59
2021/10/08 00:25:01;;;;;;;13.70;5.90;;;;;;;;;;5057996;28;20053;-59
2021/10/08 00:27:27;;;;;;;13.00;6.47;;;;;;;;;;5056242;28;20061;-60
2021/10/08 00:29:54;;;;;;;12.10;6.13;;;;;;;;;;5057018;28;20306;-60
2021/10/08 00:32:20;;;;;;;11.93;6.13;;;;;;;;;;5036256;28;20049;-59
2021/10/08 00:34:47;;;;;;;11.55;6.15;;;;;;;;;;5040120;28;20034;-61
2021/10/08 00:37:13;;;;;;;11.52;5.88;;;;;;;;;;5037475;28;20061;-60
2021/10/08 00:39:41;;;;;;;11.43;5.68;;;;;;;;;;5059679;28;20044;-59
2021/10/08 00:42:09;;;;;;;9.80;5.77;;;;;;;;;;5045674;28;20103;-60
2021/10/08 00:44:36;;;;;;;9.73;5.20;;;;;;;;;;5039271;28;20095;-62
2021/10/08 00:47:11;;;;;;;9.43;5.40;;;;;;;;;;5040977;28;20068;-60
2021/10/08 00:49:38;;;;;;;9.85;5.18;;;;;;;;;;5036154;28;20037;-61
2021/10/08 00:52:04;;;;;;;11.63;5.53;;;;;;;;;;5039231;28;20049;-59
2021/10/08 00:54:31;;;;;;;10.93;5.40;;;;;;;;;;5047601;28;20055;-59
2021/10/08 00:56:58;;;;;;;9.60;5.32;;;;;;;;;;5039806;28;20115;-59
2021/10/08 00:59:27;;;;;;;11.90;5.63;;;;;;;;;;5051420;28;20044;-59
2021/10/08 01:01:54;;;;;;;10.63;5.63;;;;;;;;;;5059226;28;20074;-61
2021/10/08 01:04:22;;;;;;;9.45;4.80;;;;;;;;;;5043777;28;20037;-62
2021/10/08 01:06:49;;;;;;;11.02;5.15;;;;;;;;;;5039587;28;20049;-60
2021/10/08 01:09:16;;;;;;;14.05;5.53;;;;;;;;;;5036309;28;20053;-61
2021/10/08 01:11:43;;;;;;;9.88;5.47;;;;;;;;;;5046697;28;20041;-61
2021/10/08 01:14:12;;;;;;;9.67;5.20;;;;;;;;;;5054059;28;20127;-60
2021/10/08 01:16:40;;;;;;;12.60;5.53;;;;;;;;;;5041910;28;20034;-62
2021/10/08 01:19:07;;;;;;;10.52;4.88;;;;;;;;;;5042036;28;20044;-60
2021/10/08 01:21:35;;;;;;;11.27;5.43;;;;;;;;;;5062136;28;20118;-62
2021/10/08 01:24:01;;;;;;;10.32;5.13;;;;;;;;;;5055833;28;20047;-59
2021/10/08 01:26:28;;;;;;;10.07;4.68;;;;;;;;;;5042563;28;20048;-61
2021/10/08 01:28:55;;;;;;;9.73;5.15;;;;;;;;;;5041772;28;20062;-61
2021/10/08 01:31:21;;;;;;;9.68;4.88;;;;;;;;;;5039181;28;20061;-60
2021/10/08 01:33:47;;;;;;;10.07;4.90;;;;;;;;;;5042406;28;20060;-62
2021/10/08 01:36:14;;;;;;;9.05;4.45;;;;;;;;;;5052060;28;20045;-59
2021/10/08 01:38:42;;;;;;;8.88;4.72;;;;;;;;;;5042229;28;20107;-58
2021/10/08 01:41:09;;;;;;;9.10;5.00;;;;;;;;;;5049347;28;20041;-58
2021/10/08 01:43:35;;;;;;;10.80;5.22;;;;;;;;;;5040303;28;20045;-58
2021/10/08 01:46:02;;;;;;;9.70;5.18;;;;;;;;;;5038659;28;20072;-61
2021/10/08 01:48:28;;;;;;;10.13;4.90;;;;;;;;;;5041835;28;20033;-58
2021/10/08 01:50:55;;;;;;;12.60;5.97;;;;;;;;;;5049006;28;20056;-59
2021/10/08 01:53:22;;;;;;;9.27;4.72;;;;;;;;;;5063320;28;20040;-58
2021/10/08 01:55:49;;;;;;;9.60;4.88;;;;;;;;;;5078817;28;20043;-58
2021/10/08 01:58:16;;;;;;;11.07;4.63;;;;;;;;;;5063725;28;20072;-58
2021/10/08 02:00:43;;;;;;;9.63;5.20;;;;;;;;;;5058946;28;20106;-58
2021/10/08 02:03:09;;;;;;;15.40;5.10;;;;;;;;;;5064254;28;20028;-61
2021/10/08 02:05:36;;;;;;;9.98;5.07;;;;;;;;;;5059732;28;20321;-58
2021/10/08 02:08:02;;;;;;;12.60;5.18;;;;;;;;;;5052098;28;20047;-57
2021/10/08 02:10:29;;;;;;;9.68;4.75;;;;;;;;;;5063801;28;20055;-59
2021/10/08 02:12:57;;;;;;;9.43;4.65;;;;;;;;;;5078610;28;20044;-58
2021/10/08 02:15:23;;;;;;;11.60;5.38;;;;;;;;;;5066111;28;20044;-58
2021/10/08 02:17:50;;;;;;;10.60;5.32;;;;;;;;;;5055655;28;20044;-57
2021/10/08 02:20:16;;;;;;;12.25;5.60;;;;;;;;;;5060068;28;20045;-58
2021/10/08 02:22:43;;;;;;;10.48;5.03;;;;;;;;;;5045553;28;20037;-57
2021/10/08 02:25:09;;;;;;;13.05;5.63;;;;;;;;;;5043456;28;20038;-58
2021/10/08 02:27:36;;;;;;;10.90;5.47;;;;;;;;;;5049120;28;20045;-60
2021/10/08 02:30:05;;;;;;;12.93;5.50;;;;;;;;;;5043830;28;20045;-59
2021/10/08 02:32:31;;;;;;;;;;;;;;;;;;5043075;28;20040;-59
2021/10/08 02:34:57;;;;;;;8.95;4.25;;;;;;;;;;5043992;28;19932;-61
2021/10/08 02:37:24;;;;;;;9.35;4.35;;;;;;;;;;5045931;28;20048;-60
2021/10/08 02:39:52;;;;;;;10.27;4.60;;;;;;;;;;5043986;28;20057;-60
2021/10/08 02:42:18;;;;;;;9.77;5.07;;;;;;;;;;5047351;28;20048;-59
2021/10/08 02:44:44;;;;;;;10.52;4.63;;;;;;;;;;5066220;28;20110;-62
2021/10/08 02:47:12;;;;;;;8.73;4.50;;;;;;;;;;5062699;28;20056;-60
2021/10/08 02:49:40;;;;;;;9.70;4.83;;;;;;;;;;5064876;28;20055;-60
2021/10/08 02:52:07;;;;;;;9.13;4.60;;;;;;;;;;5063419;28;20052;-59
2021/10/08 02:54:33;;;;;;;10.68;5.40;;;;;;;;;;5059287;28;20068;-60
2021/10/08 02:57:00;;;;;;;9.27;5.07;;;;;;;;;;5044805;28;20045;-60
2021/10/08 02:59:27;;;;;;;9.68;4.60;;;;;;;;;;5059489;28;20051;-58
2021/10/08 03:01:54;;;;;;;9.95;5.00;;;;;;;;;;5064132;28;20044;-59
2021/10/08 03:04:21;;;;;;;10.05;5.07;;;;;;;;;;5058749;28;20052;-60
2021/10/08 03:06:48;;;;;;;10.13;4.53;;;;;;;;;;5063044;28;20040;-58
2021/10/08 03:09:16;;;;;;;9.90;4.65;;;;;;;;;;5059623;28;20048;-58
2021/10/08 03:11:43;;;;;;;8.60;4.70;;;;;;;;;;5064285;28;20056;-60
2021/10/08 03:14:09;;;;;;;8.93;4.80;;;;;;;;;;5051548;28;20033;-59
2021/10/08 03:16:36;;;;;;;10.18;5.18;;;;;;;;;;5043724;28;20044;-58
2021/10/08 03:19:03;;;;;;;8.52;4.30;;;;;;;;;;5044282;28;20106;-58
2021/10/08 03:21:31;;;;;;;8.32;4.65;;;;;;;;;;5060874;28;20146;-58
2021/10/08 03:23:57;;;;;;;10.48;4.57;;;;;;;;;;5045338;28;20036;-59
2021/10/08 03:26:23;;;;;;;9.98;4.57;;;;;;;;;;5065189;28;20040;-59
2021/10/08 03:28:50;;;;;;;12.25;5.03;;;;;;;;;;5058141;28;20044;-58
2021/10/08 03:31:16;;;;;;;11.68;4.80;;;;;;;;;;5043866;28;20045;-59
2021/10/08 03:33:43;;;;;;;9.60;4.68;;;;;;;;;;5043415;28;20049;-58
2021/10/08 03:36:15;;;;;;;10.55;4.95;;;;;;;;;;5059370;28;20075;-58
2021/10/08 03:38:43;;;;;;;8.80;4.60;;;;;;;;;;5082588;28;20182;-58
2021/10/08 03:41:13;;;;;;;9.75;4.53;;;;;;;;;;5054261;28;20052;-58
2021/10/08 03:43:41;;;;;;;9.05;4.38;;;;;;;;;;5062585;28;20069;-58
2021/10/08 03:46:08;;;;;;;9.57;3.88;;;;;;;;;;5059397;28;20060;-58
2021/10/08 03:49:01;;;;;;;10.52;4.40;;;;;;;;;;5063670;28;20090;-59
2021/10/08 03:51:28;;;;;;;9.05;4.40;;;;;;;;;;5048049;28;20040;-59
2021/10/08 03:53:56;;;;;;;9.82;4.70;;;;;;;;;;5063964;28;20041;-58
2021/10/08 03:56:23;;;;;;;9.05;4.10;;;;;;;;;;5059310;28;20048;-58
2021/10/08 03:58:49;;;;;;;10.13;4.88;;;;;;;;;;5063471;28;20093;-59
2021/10/08 04:01:16;;;;;;;8.90;4.35;;;;;;;;;;5054505;28;20151;-59
2021/10/08 04:03:42;;;;;;;8.60;4.35;;;;;;;;;;5059050;28;20051;-61
2021/10/08 04:06:11;;;;;;;9.85;4.65;;;;;;;;;;5055819;28;20064;-61
2021/10/08 04:08:38;;;;;;;;;;;;;;;;;;5062181;28;20060;-61
2021/10/08 04:11:06;;;;;;;7.60;4.07;;;;;;;;;;5056820;28;19924;-59
2021/10/08 04:13:34;;;;;;;9.10;4.60;;;;;;;;;;5065481;28;20045;-60
2021/10/08 04:16:01;;;;;;;8.63;4.60;;;;;;;;;;5055342;28;20044;-59
2021/10/08 04:18:27;;;;;;;9.85;4.78;;;;;;;;;;5046384;28;20053;-59
2021/10/08 04:20:54;;;;;;;8.80;4.53;;;;;;;;;;5041394;28;20048;-60
2021/10/08 04:23:21;;;;;;;9.77;4.40;;;;;;;;;;5043469;28;20044;-59
2021/10/08 04:25:47;;;;;;;8.73;4.20;;;;;;;;;;5058980;28;20041;-59
2021/10/08 04:28:15;;;;;;;7.40;3.78;;;;;;;;;;5035329;28;20126;-61
2021/10/08 04:30:43;;;;;;;12.37;4.00;;;;;;;;;;5024797;28;20037;-60
2021/10/08 04:33:17;;;;;;;8.43;3.88;;;;;;;;;;5021045;28;20147;-62
2021/10/08 04:35:44;;;;;;;9.57;3.40;;;;;;;;;;5022087;28;20123;-62
2021/10/08 04:38:10;;;;;;;6.38;3.45;;;;;;;;;;5035721;28;20021;-58
2021/10/08 04:40:38;;;;;;;11.25;3.60;;;;;;;;;;5043394;28;20040;-60
2021/10/08 04:43:04;;;;;;;7.10;3.53;;;;;;;;;;5019859;28;20065;-59
2021/10/08 04:45:32;;;;;;;7.60;3.65;;;;;;;;;;5022453;28;20056;-58
2021/10/08 04:47:59;;;;;;;9.33;3.83;;;;;;;;;;5020765;28;20060;-58
2021/10/08 04:50:27;;;;;;;7.63;3.63;;;;;;;;;;5023217;28;20040;-63
2021/10/08 04:52:53;;;;;;;7.32;3.53;;;;;;;;;;5023685;28;20163;-59
2021/10/08 04:55:20;;;;;;;8.60;3.92;;;;;;;;;;5041753;28;20041;-60
2021/10/08 04:57:46;;;;;;;7.90;4.13;;;;;;;;;;5039268;28;20145;-61
2021/10/08 05:00:13;;;;;;;9.60;3.80;;;;;;;;;;5043226;28;20046;-60
2021/10/08 05:02:42;;;;;;;7.50;3.70;;;;;;;;;;5039993;28;20041;-60
2021/10/08 05:05:08;;;;;;;8.50;4.03;;;;;;;;;;5036358;28;20029;-58
2021/10/08 05:07:35;;;;;;;8.63;3.95;;;;;;;;;;5041589;28;20048;-59
2021/10/08 05:10:03;;;;;;;8.23;3.25;;;;;;;;;;5062521;28;20037;-58
2021/10/08 05:12:29;;;;;;;7.72;3.50;;;;;;;;;;5063856;28;20040;-59
2021/10/08 05:14:56;;;;;;;6.60;3.28;;;;;;;;;;5055823;28;20057;-59
2021/10/08 05:17:22;;;;;;;7.45;3.55;;;;;;;;;;5042860;28;20081;-58
2021/10/08 05:19:51;;;;;;;6.70;3.33;;;;;;;;;;5055148;28;20048;-57
2021/10/08 05:22:17;;;;;;;6.70;3.50;;;;;;;;;;5062102;28;20114;-58
2021/10/08 05:24:44;;;;;;;6.00;3.25;;;;;;;;;;5051386;28;20036;-61
2021/10/08 05:27:12;;;;;;;6.50;2.88;;;;;;;;;;5054888;28;20061;-59
2021/10/08 05:29:39;;;;;;;6.90;3.20;;;;;;;;;;5053945;28;20048;-62
2021/10/08 05:32:05;;;;;;;6.50;3.33;;;;;;;;;;5053104;28;20032;-61
2021/10/08 05:34:32;;;;;;;5.95;3.03;;;;;;;;;;5052603;28;20126;-62
2021/10/08 05:37:02;;;;;;;5.60;3.05;;;;;;;;;;5061261;28;20080;-59
2021/10/08 05:39:29;;;;;;;5.97;2.72;;;;;;;;;;5049037;28;20033;-61
2021/10/08 05:41:56;;;;;;;4.68;2.95;;;;;;;;;;5052546;28;20056;-58
2021/10/08 05:44:22;;;;;;;13.43;6.85;;;;;;;;;;5060335;28;20049;-60
2021/10/08 05:46:49;;;;;;;9.38;4.20;;;;;;;;;;5061066;28;20040;-59
2021/10/08 05:49:15;;;;;;;8.27;3.10;;;;;;;;;;5047919;28;20059;-59
2021/10/08 05:51:42;;;;;;;11.82;3.30;;;;;;;;;;5056119;28;20040;-59
2021/10/08 05:54:10;;;;;;;8.60;3.08;;;;;;;;;;5056217;28;20069;-61
2021/10/08 05:56:36;;;;;;;6.33;3.00;;;;;;;;;;5051891;28;20060;-59
2021/10/08 05:59:03;;;;;;;6.57;3.03;;;;;;;;;;5053659;28;20064;-58
2021/10/08 06:01:29;;;;;;;7.10;3.40;;;;;;;;;;5048426;28;20062;-60
2021/10/08 06:03:56;;;;;;;6.80;2.80;;;;;;;;;;5052553;28;20058;-60
2021/10/08 06:06:22;;;;;;;9.65;3.50;;;;;;;;;;5055052;28;20052;-61
2021/10/08 06:08:49;;;;;;;6.57;3.30;;;;;;;;;;5061648;28;20052;-59
2021/10/08 06:11:20;;;;;;;6.00;3.15;;;;;;;;;;5051919;28;20074;-58
2021/10/08 06:13:46;;;;;;;7.80;3.53;;;;;;;;;;5063772;28;20072;-59
2021/10/08 06:16:13;;;;;;;12.10;3.47;;;;;;;;;;5054032;28;20049;-60
2021/10/08 06:18:39;;;;;;;7.20;3.47;;;;;;;;;;5039864;28;20056;-60
2021/10/08 06:21:06;;;;;;;6.80;2.83;;;;;;;;;;5054515;28;20033;-58
2021/10/08 06:23:32;;;;;;;7.47;3.28;;;;;;;;;;5057767;28;20022;-59
2021/10/08 06:25:58;;;;;;;7.68;3.05;;;;;;;;;;5038293;28;20134;-60
2021/10/08 06:28:26;;;;;;;10.52;4.28;;;;;;;;;;5040184;28;20053;-59
2021/10/08 06:30:53;;;;;;;11.32;4.30;;;;;;;;;;5036578;28;20049;-58
2021/10/08 06:33:19;;;;;;;10.45;4.28;;;;;;;;;;5041333;28;20052;-59
2021/10/08 06:35:46;;;;;;;9.98;4.22;;;;;;;;;;5057656;28;20037;-57
2021/10/08 06:38:13;;;;;;;11.98;4.47;;;;;;;;;;5038876;28;20058;-57
2021/10/08 06:40:40;;;;;;;10.55;4.53;;;;;;;;;;5042531;28;20052;-56
2021/10/08 06:43:06;;;;;;;13.55;5.30;;;;;;;;;;5057415;28;20040;-58
2021/10/08 06:45:35;;;;;;;13.93;5.47;;;;;;;;;;5061311;28;20060;-58
2021/10/08 06:48:01;;;;;;;;;;;;;;;;;;5057972;28;20056;-58
2021/10/08 06:50:28;;;;;;;13.32;5.55;;;;;;;;;;5060596;28;19920;-58
2021/10/08 06:52:55;;;;;;;13.68;6.22;;;;;;;;;;5053562;28;20053;-58
2021/10/08 06:55:21;;;;;;;14.52;6.53;;;;;;;;;;5040222;28;20056;-62
2021/10/08 06:57:48;;;;;;;18.35;7.13;;;;;;;;;;5039705;28;20057;-57
2021/10/08 07:00:15;;;;;;;20.25;8.02;;;;;;;;;;5041313;28;20033;-58
2021/10/08 07:02:50;;;;;;;19.88;7.85;;;;;;;;;;5039748;28;20047;-61
2021/10/08 07:05:17;;;;;;;13.77;6.43;;;;;;;;;;5040654;28;20052;-58
2021/10/08 07:07:44;;;;;;;20.58;7.63;;;;;;;;;;5037649;28;20057;-60
2021/10/08 07:10:12;;;;;;;20.27;8.23;;;;;;;;;;5040514;28;20045;-61
2021/10/08 07:12:39;;;;;;;;;;;;;;;;;;5054178;28;20056;-59
2021/10/08 07:15:07;;;;;;;13.15;6.10;;;;;;;;;;5042963;28;19912;-62
2021/10/08 07:17:38;;;;;;;19.15;7.63;;;;;;;;;;5037011;28;20048;-57
2021/10/08 07:20:07;;;;;;;18.30;7.32;;;;;;;;;;5060974;28;20081;-60
2021/10/08 07:22:35;;;;;;;14.68;6.38;;;;;;;;;;5060059;28;20089;-58
2021/10/08 07:25:03;;;;;;;14.07;6.07;;;;;;;;;;5052800;28;20045;-55
2021/10/08 07:27:29;;;;;;;17.83;7.72;;;;;;;;;;5039792;28;20099;-61
2021/10/08 07:29:57;;;;;;;16.67;7.18;;;;;;;;;;5050420;28;20037;-61
2021/10/08 07:32:24;;;;;;;16.95;6.15;;;;;;;;;;5041091;28;20041;-60
2021/10/08 07:34:50;;;;;;;20.17;7.47;;;;;;;;;;5037810;28;20163;-61
2021/10/08 07:37:18;;;;;;;20.55;8.00;;;;;;;;;;5039141;28;20041;-59
2021/10/08 07:39:44;;;;;;;21.92;8.70;;;;;;;;;;5045423;28;20091;-62
2021/10/08 07:42:11;;;;;;;23.58;9.70;;;;;;;;;;5042904;28;20122;-61
2021/10/08 07:44:38;;;;;;;20.70;8.82;;;;;;;;;;5057646;28;20045;-62
2021/10/08 07:47:04;;;;;;;21.38;9.73;;;;;;;;;;5060420;28;20041;-59
2021/10/08 07:49:31;;;;;;;24.23;9.60;;;;;;;;;;5054452;28;20134;-60
2021/10/08 07:51:57;;;;;;;22.75;10.07;;;;;;;;;;5059764;28;20040;-60
2021/10/08 07:54:25;;;;;;;27.67;10.27;;;;;;;;;;5052909;28;20052;-59
2021/10/08 07:56:52;;;;;;;21.83;9.83;;;;;;;;;;5042430;28;20052;-57
2021/10/08 07:59:19;;;;;;;21.20;8.75;;;;;;;;;;5056502;28;20366;-62
2021/10/08 08:01:46;;;;;;;22.23;8.52;;;;;;;;;;5038762;28;20049;-58
2021/10/08 08:04:13;;;;;;;24.55;9.85;;;;;;;;;;5056873;28;20060;-57
2021/10/08 08:06:40;;;;;;;24.38;9.30;;;;;;;;;;5036554;28;20045;-59
2021/10/08 08:09:06;;;;;;;22.63;9.20;;;;;;;;;;5039987;28;20041;-58
2021/10/08 08:11:35;;;;;;;28.52;10.95;;;;;;;;;;5043976;28;20037;-61
2021/10/08 08:14:01;;;;;;;25.55;10.60;;;;;;;;;;5039197;28;20041;-58
2021/10/08 08:16:28;;;;;;;25.42;10.50;;;;;;;;;;5037593;28;20148;-58
2021/10/08 08:18:54;;;;;;;22.55;9.40;;;;;;;;;;5039828;28;20037;-56
2021/10/08 08:21:22;;;;;;;28.33;10.57;;;;;;;;;;5037259;28;20033;-59
2021/10/08 08:23:48;;;;;;;25.45;10.02;;;;;;;;;;5039847;28;20045;-61
2021/10/08 08:26:15;;;;;;;26.58;11.52;;;;;;;;;;5037183;28;20049;-60
2021/10/08 08:28:43;;;;;;;28.45;11.82;;;;;;;;;;5035714;28;20041;-62
2021/10/08 08:31:09;;;;;;;30.25;12.20;;;;;;;;;;5039609;28;20033;-60
2021/10/08 08:33:36;;;;;;;28.05;11.43;;;;;;;;;;5043073;28;20045;-59
2021/10/08 08:36:03;;;;;;;24.27;10.60;;;;;;;;;;5041681;28;20052;-61
2021/10/08 08:38:30;;;;;;;26.17;11.40;;;;;;;;;;5042671;28;20048;-60
2021/10/08 08:40:58;;;;;;;34.22;13.57;;;;;;;;;;5042529;28;20037;-60
2021/10/08 08:43:26;;;;;;;37.60;14.18;;;;;;;;;;5065677;28;20037;-59
2021/10/08 08:45:54;;;;;;;29.88;12.50;;;;;;;;;;5064115;28;20071;-57
2021/10/08 08:48:21;;;;;;;30.33;13.47;;;;;;;;;;5041944;28;20037;-58
2021/10/08 08:50:48;;;;;;;33.80;13.93;;;;;;;;;;5040856;28;20053;-60
2021/10/08 08:53:15;;;;;;;32.97;13.73;;;;;;;;;;5058537;28;20044;-61
2021/10/08 08:55:42;;;;;;;30.35;13.07;;;;;;;;;;5061472;28;20045;-61
2021/10/08 08:58:08;;;;;;;33.22;13.45;;;;;;;;;;5059380;28;20049;-61
2021/10/08 09:00:39;;;;;;;29.45;12.70;;;;;;;;;;5061619;28;20037;-61
2021/10/08 09:03:13;;;;;;;34.75;12.93;;;;;;;;;;5052730;28;20052;-60
2021/10/08 09:05:45;;;;;;;31.83;12.10;;;;;;;;;;5035956;28;20029;-59
2021/10/08 09:08:13;;;;;;;32.75;13.00;;;;;;;;;;5039457;28;20048;-59
2021/10/08 09:10:42;;;;;;;32.72;13.00;;;;;;;;;;5042069;28;20037;-58
2021/10/08 09:13:09;;;;;;;32.03;13.02;;;;;;;;;;5047971;28;20037;-59
2021/10/08 09:15:45;;;;;;;39.75;13.70;;;;;;;;;;5043208;28;20111;-59
2021/10/08 09:18:13;;;;;;;36.00;13.50;;;;;;;;;;5054969;28;20049;-61
2021/10/08 09:21:00;;;;;;;32.67;12.93;;;;;;;;;;5055860;28;20045;-61
2021/10/08 09:23:29;;;;;;;31.88;13.55;;;;;;;;;;5043340;28;20076;-58
2021/10/08 09:25:56;;;;;;;30.80;13.07;;;;;;;;;;5042186;28;20079;-58
2021/10/08 09:28:22;;;;;;;32.60;13.70;;;;;;;;;;5044466;28;20094;-61
2021/10/08 09:30:49;;;;;;;32.47;12.60;;;;;;;;;;5062231;28;20048;-62
2021/10/08 09:33:19;;;;;;;33.85;13.65;;;;;;;;;;5054597;28;20053;-58
2021/10/08 09:35:47;;;;;;;32.63;13.10;;;;;;;;;;5041802;28;20045;-61
2021/10/08 09:38:15;;;;;;;30.15;12.98;;;;;;;;;;5040823;28;20049;-57
2021/10/08 09:40:44;;;;;;;32.15;12.63;;;;;;;;;;5043130;28;20037;-58
2021/10/08 09:43:12;;;;;;;30.30;13.23;;;;;;;;;;5038713;28;20041;-62
2021/10/08 09:45:43;;;;;;;30.50;11.93;;;;;;;;;;5060455;28;20139;-61
2021/10/08 09:48:10;;;;;;;28.45;12.55;;;;;;;;;;5041739;28;20033;-58
2021/10/08 09:50:38;;;;;;;31.88;12.57;;;;;;;;;;5050493;28;20040;-60
2021/10/08 09:53:09;;;;;;;30.92;12.63;;;;;;;;;;5040781;28;20069;-60
2021/10/08 09:55:35;;;;;;;34.20;13.43;;;;;;;;;;5055047;28;20040;-62
2021/10/08 09:58:02;;;;;;;27.65;12.00;;;;;;;;;;5061453;28;20048;-61
2021/10/08 10:00:56;;;;;;;31.35;14.00;;;;;;;;;;5044127;28;20099;-62
2021/10/08 10:03:23;;;;;;;30.27;12.68;;;;;;;;;;5037094;28;20057;-59
2021/10/08 10:05:53;;;;;;;34.15;12.90;;;;;;;;;;5056724;28;20040;-59
2021/10/08 10:08:20;;;;;;;31.60;12.35;;;;;;;;;;5061405;28;20061;-59
2021/10/08 10:10:46;;;;;;;32.58;11.82;;;;;;;;;;5058930;28;20037;-62
2021/10/08 10:13:13;;;;;;;29.88;12.50;;;;;;;;;;5044506;28;20033;-62
2021/10/08 10:15:40;;;;;;;34.13;12.30;;;;;;;;;;5041274;28;20045;-61
2021/10/08 10:18:09;;;;;;;30.20;12.15;;;;;;;;;;5041901;28;20049;-62
2021/10/08 10:20:38;;;;;;;29.00;12.50;;;;;;;;;;5035479;28;20134;-61
2021/10/08 10:23:07;;;;;;;30.13;12.48;;;;;;;;;;5041211;28;20037;-60
2021/10/08 10:25:34;;;;;;;36.42;13.07;;;;;;;;;;5043740;28;20130;-59
2021/10/08 10:28:01;;;;;;;30.67;12.38;;;;;;;;;;5061488;28;20045;-62
2021/10/08 10:30:31;;;;;;;29.23;11.38;;;;;;;;;;5057177;28;20033;-62
2021/10/08 10:32:58;;;;;;;41.25;13.38;;;;;;;;;;5059856;28;20017;-60
2021/10/08 10:35:51;;;;;;;30.20;12.23;;;;;;;;;;5058540;28;20053;-60
2021/10/08 10:38:23;;;;;;;33.33;13.45;;;;;;;;;;5000071;28;20041;-62
2021/10/08 10:41:03;;;;;;;30.73;13.63;;;;;;;;;;5055617;28;20051;-58
2021/10/08 10:43:32;;;;;;;36.22;14.60;;;;;;;;;;5040832;28;20099;-62
2021/10/08 10:46:13;;;;;;;39.40;16.55;;;;;;;;;;5039659;28;20075;-57
2021/10/08 10:48:46;;;;;;;34.58;13.10;;;;;;;;;;5058892;28;20048;-59
2021/10/08 10:51:14;;;;;;;37.15;12.00;;;;;;;;;;5052512;28;20024;-59
2021/10/08 10:53:49;;;;;;;31.45;12.63;;;;;;;;;;5057692;28;20060;-59
2021/10/08 10:56:31;;;;;;;33.92;14.32;;;;;;;;;;5049455;28;20051;-58
2021/10/08 10:59:12;;;;;;;32.58;13.48;;;;;;;;;;5061205;28;20040;-57
2021/10/08 11:02:11;;;;;;;34.97;14.07;;;;;;;;;;5057759;28;20103;-58
2021/10/08 11:04:39;;;;;;;34.95;13.98;;;;;;;;;;5059519;28;20056;-57
2021/10/08 11:07:06;;;;;;;37.47;14.75;;;;;;;;;;5056838;28;20040;-59
2021/10/08 11:09:35;;;;;;;38.58;13.82;;;;;;;;;;5059820;28;20037;-60
2021/10/08 11:12:23;;;;;;;30.52;12.82;;;;;;;;;;5048753;28;20086;-61
2021/10/08 11:14:49;;;;;;;33.75;12.98;;;;;;;;;;5060407;28;20060;-59
2021/10/08 11:17:31;;;;;;;38.92;14.07;;;;;;;;;;5058486;28;20049;-63
2021/10/08 11:19:58;;;;;;;34.72;13.15;;;;;;;;;;5059210;28;20036;-58
2021/10/08 11:22:40;;;;;;;34.38;13.25;;;;;;;;;;5057022;28;20055;-60
2021/10/08 11:25:10;;;;;;;36.58;12.25;;;;;;;;;;5060243;28;20048;-61
2021/10/08 11:27:37;;;;;;;40.90;13.75;;;;;;;;;;5054872;28;20118;-60
2021/10/08 11:30:07;;;;;;;28.13;11.80;;;;;;;;;;5061185;28;20053;-60
2021/10/08 11:32:34;;;;;;;26.15;11.05;;;;;;;;;;5059312;28;20071;-61
2021/10/08 11:35:01;;;;;;;30.30;10.82;;;;;;;;;;5061887;28;20125;-60
2021/10/08 11:37:29;;;;;;;25.00;10.18;;;;;;;;;;5061989;28;20040;-58
2021/10/08 11:39:56;;;;;;;27.38;9.68;;;;;;;;;;5058243;28;20032;-58
2021/10/08 11:42:26;;;;;;;27.13;10.10;;;;;;;;;;5062251;28;20060;-63
2021/10/08 11:44:59;;;;;;;24.42;8.73;;;;;;;;;;5061351;28;20056;-62
2021/10/08 11:47:28;;;;;;;21.27;8.63;;;;;;;;;;5060069;28;20055;-59
2021/10/08 11:52:40;;;;;;;23.30;8.95;;;;;;;;;;5061359;28;20054;-58
2021/10/08 11:55:12;;;;;;;19.90;8.30;;;;;;;;;;5054664;28;20041;-59
2021/10/08 11:58:03;;;;;;;18.00;7.55;;;;;;;;;;5052927;28;20048;-59
2021/10/08 12:00:36;;;;;;;17.30;7.53;;;;;;;;;;5029284;28;20092;-58
2021/10/08 12:03:04;;;;;;;15.85;7.25;;;;;;;;;;5043575;28;20068;-59
2021/10/08 12:05:41;;;;;;;17.20;7.50;;;;;;;;;;5052684;28;20052;-60
2021/10/08 12:08:08;;;;;;;14.93;6.70;;;;;;;;;;5052938;28;20055;-59
2021/10/08 12:10:35;;;;;;;14.60;6.07;;;;;;;;;;5043654;28;20052;-61
2021/10/08 12:13:02;;;;;;;14.45;5.70;;;;;;;;;;5063642;28;20053;-58
2021/10/08 12:15:30;;;;;;;18.05;5.70;;;;;;;;;;5046240;28;20199;-59
2021/10/08 12:17:59;;;;;;;11.20;4.97;;;;;;;;;;5053399;28;20056;-61
2021/10/08 12:20:28;;;;;;;;;;;;;;;;;;5042432;28;20061;-59
2021/10/08 12:23:18;;;;;;;11.73;5.20;;;;;;;;;;5049854;28;19924;-58
2021/10/08 12:25:45;;;;;;;10.85;3.92;;;;;;;;;;5043611;28;20060;-59
2021/10/08 12:28:12;;;;;;;8.13;3.70;;;;;;;;;;5055774;28;20183;-58
2021/10/08 12:30:49;;;;;;;9.23;3.70;;;;;;;;;;5044261;28;20049;-59
2021/10/08 12:33:24;;;;;;;10.10;3.80;;;;;;;;;;5061184;28;20056;-61
2021/10/08 12:36:05;;;;;;;7.13;3.30;;;;;;;;;;5054056;28;20033;-59
2021/10/08 12:38:47;;;;;;;9.10;3.13;;;;;;;;;;5059587;28;20056;-58
2021/10/08 12:41:19;;;;;;;9.98;3.75;;;;;;;;;;5051509;28;20049;-59
2021/10/08 12:43:45;;;;;;;6.28;2.92;;;;;;;;;;5039348;28;20037;-59
2021/10/08 12:46:18;;;;;;;6.43;2.97;;;;;;;;;;5035839;28;20045;-59
2021/10/08 12:48:57;;;;;;;7.38;2.78;;;;;;;;;;5038151;28;20041;-59
2021/10/08 12:51:23;;;;;;;5.55;2.58;;;;;;;;;;5036311;28;20053;-58
2021/10/08 12:54:10;;;;;;;5.10;2.67;;;;;;;;;;5040585;28;20049;-60
2021/10/08 12:56:36;;;;;;;6.07;2.25;;;;;;;;;;5064069;28;20049;-58
2021/10/08 12:59:03;;;;;;;4.97;2.50;;;;;;;;;;5063157;28;20053;-60
2021/10/08 13:01:29;;;;;;;4.07;2.08;;;;;;;;;;5053044;28;20084;-58
2021/10/08 13:03:58;;;;;;;4.95;2.40;;;;;;;;;;5043073;28;20057;-59
2021/10/08 13:06:25;;;;;;;;;;;;;;;;;;5040062;28;20100;-59
2021/10/08 13:09:03;;;;;;;4.93;1.73;;;;;;;;;;5041634;28;19928;-58
2021/10/08 13:11:36;;;;;;;3.40;1.60;;;;;;;;;;5046907;28;20041;-61
2021/10/08 13:14:03;;;;;;;4.00;1.85;;;;;;;;;;5063077;28;20024;-60
2021/10/08 13:16:30;;;;;;;6.45;2.10;;;;;;;;;;5063182;28;20040;-60
2021/10/08 13:19:02;;;;;;;4.72;2.00;;;;;;;;;;5047960;28;20041;-59
2021/10/08 13:21:29;;;;;;;4.07;1.80;;;;;;;;;;5038254;28;20052;-59
2021/10/08 13:23:56;;;;;;;4.60;1.95;;;;;;;;;;5059381;28;20095;-59
2021/10/08 13:26:24;;;;;;;3.78;1.75;;;;;;;;;;5066788;28;20056;-60
2021/10/08 13:28:52;;;;;;;3.35;1.73;;;;;;;;;;5057740;28;20051;-59
2021/10/08 13:31:20;;;;;;;2.28;1.40;;;;;;;;;;5047569;28;20073;-59
2021/10/08 13:33:46;;;;;;;3.00;1.57;;;;;;;;;;5041098;28;20073;-61
2021/10/08 13:36:14;;;;;;;2.78;1.38;;;;;;;;;;5056709;28;20281;-61
2021/10/08 13:38:41;;;;;;;5.97;1.67;;;;;;;;;;5038533;28;20182;-60
2021/10/08 13:41:07;;;;;;;4.68;1.63;;;;;;;;;;5044653;28;20274;-60
2021/10/08 13:43:34;;;;;;;3.50;1.77;;;;;;;;;;5057365;28;20051;-60
2021/10/08 13:46:00;;;;;;;3.58;1.70;;;;;;;;;;5065166;28;20109;-59
2021/10/08 13:48:29;;;;;;;4.30;1.50;;;;;;;;;;5053932;28;20057;-59
2021/10/08 13:50:56;;;;;;;4.15;1.40;;;;;;;;;;5032318;28;20057;-58
2021/10/08 13:53:23;;;;;;;3.60;1.42;;;;;;;;;;5038372;28;20056;-61
2021/10/08 13:55:50;;;;;;;2.57;1.37;;;;;;;;;;5044716;28;20057;-60
2021/10/08 13:58:16;;;;;;;6.03;1.67;;;;;;;;;;5042621;28;20053;-59
2021/10/08 14:00:47;;;;;;;3.17;1.52;;;;;;;;;;5062537;28;20024;-59
2021/10/08 14:03:25;;;;;;;3.20;1.50;;;;;;;;;;5063522;28;20048;-59
2021/10/08 14:08:42;;;;;;;3.78;1.80;;;;;;;;;;5041436;28;20035;-59
2021/10/08 14:11:10;;;;;;;6.82;2.28;;;;;;;;;;5048007;28;20080;-60
2021/10/08 14:13:37;;;;;;;7.82;2.17;;;;;;;;;;5065602;28;20033;-60
2021/10/08 14:16:04;;;;;;;6.10;2.22;;;;;;;;;;5062006;28;20076;-60
2021/10/08 14:18:31;;;;;;;5.70;2.60;;;;;;;;;;5066238;28;20109;-59
2021/10/08 14:20:58;;;;;;;6.18;3.10;;;;;;;;;;5059863;28;20044;-60
2021/10/08 14:23:24;;;;;;;9.27;3.78;;;;;;;;;;5064977;28;20060;-59
2021/10/08 14:25:53;;;;;;;6.80;3.08;;;;;;;;;;5046379;28;20048;-63
2021/10/08 14:28:20;;;;;;;7.68;3.67;;;;;;;;;;5044093;28;20044;-59
2021/10/08 14:30:46;;;;;;;9.35;3.63;;;;;;;;;;5050286;28;20051;-59
2021/10/08 14:33:13;;;;;;;7.57;3.35;;;;;;;;;;5045464;28;20044;-62
2021/10/08 14:35:39;;;;;;;9.27;4.65;;;;;;;;;;5067949;28;20036;-60
2021/10/08 14:38:06;;;;;;;8.93;4.30;;;;;;;;;;5064776;28;20056;-59
2021/10/08 14:40:33;;;;;;;8.52;4.22;;;;;;;;;;5054186;28;20122;-59
2021/10/08 14:43:00;;;;;;;6.53;3.42;;;;;;;;;;5063934;28;20040;-61
2021/10/08 14:45:27;;;;;;;9.33;4.00;;;;;;;;;;5061635;28;20106;-59